sensor_id;sensor_type;location;lat;lon;timestamp;pressure;altitude;pressure_sealevel;temperature;humidity
10706;BME280;5404;42.656;23.336;2022-07-22T00:00:47;94862.41;;;20.92;100.00
10706;BME280;5404;42.656;23.336;2022-07-22T00:03:12;94862.78;;;20.90;100.00
10706;BME280;5404;42.656;23.336;2022-07-22T00:05:38;94868.56;;;20.88;100.00
10706;BME280;5404;42.656;23.336;2022-07-22T00:08:04;94864.97;;;20.84;100.00
10706;BME280;5404;42.656;23.336;2022-07-22T00:10:29;94873.00;;;20.77;100.00
10706;BME280;5404;42.656;23.336;2022-07-22T00:12:55;94872.13;;;20.73;100.00
10706;BME280;5404;42.656;23.336;2022-07-22T00:15:20;94861.22;;;20.70;100.00
10706;BME280;5404;42.656;23.336;2022-07-22T00:17:46;94867.44;;;20.70;100.00
10706;BME280;5404;42.656;23.336;2022-07-22T00:20:11;94874.97;;;20.61;100.00
10706;BME280;5404;42.656;23.336;2022-07-22T00:22:37;94878.88;;;20.64;100.00
10706;BME280;5404;42.656;23.336;2022-07-22T00:25:03;94881.47;;;20.57;100.00
10706;BME280;5404;42.656;23.336;2022-07-22T00:27:28;94880.94;;;20.51;100.00
10706;BME280;5404;42.656;23.336;2022-07-22T00:29:54;94865.59;;;20.40;100.00
10706;BME280;5404;42.656;23.336;2022-07-22T00:32:19;94883.22;;;20.49;100.00
10706;BME280;5404;42.656;23.336;2022-07-22T00:34:45;94892.41;;;20.45;100.00
10706;BME280;5404;42.656;23.336;2022-07-22T00:37:10;94886.22;;;20.44;100.00
10706;BME280;5404;42.656;23.336;2022-07-22T00:39:36;94889.84;;;20.33;100.00
10706;BME280;5404;42.656;23.336;2022-07-22T00:42:02;94898.72;;;20.33;100.00
10706;BME280;5404;42.656;23.336;2022-07-22T00:44:27;94898.81;;;20.21;100.00
10706;BME280;5404;42.656;23.336;2022-07-22T00:46:53;94898.06;;;20.21;100.00
10706;BME280;5404;42.656;23.336;2022-07-22T00:49:18;94900.50;;;20.10;100.00
10706;BME280;5404;42.656;23.336;2022-07-22T00:51:46;94901.34;;;20.14;100.00
10706;BME280;5404;42.656;23.336;2022-07-22T00:54:12;94886.88;;;20.07;100.00
10706;BME280;5404;42.656;23.336;2022-07-22T00:56:38;94886.88;;;20.07;100.00
10706;BME280;5404;42.656;23.336;2022-07-22T00:59:11;94903.19;;;20.10;100.00
10706;BME280;5404;42.656;23.336;2022-07-22T01:01:36;94893.59;;;19.97;100.00
10706;BME280;5404;42.656;23.336;2022-07-22T01:04:02;94889.59;;;19.91;100.00
10706;BME280;5404;42.656;23.336;2022-07-22T01:06:29;94892.13;;;19.84;100.00
10706;BME280;5404;42.656;23.336;2022-07-22T01:08:55;94896.84;;;19.87;100.00
10706;BME280;5404;42.656;23.336;2022-07-22T01:11:22;94889.78;;;19.83;100.00
10706;BME280;5404;42.656;23.336;2022-07-22T01:13:48;94885.06;;;19.80;100.00
10706;BME280;5404;42.656;23.336;2022-07-22T01:16:15;94889.63;;;19.76;100.00
10706;BME280;5404;42.656;23.336;2022-07-22T01:18:42;94900.44;;;19.76;100.00
10706;BME280;5404;42.656;23.336;2022-07-22T01:21:08;94894.13;;;19.71;100.00
10706;BME280;5404;42.656;23.336;2022-07-22T01:23:35;94896.31;;;19.66;100.00
10706;BME280;5404;42.656;23.336;2022-07-22T01:26:02;94901.22;;;19.60;100.00
10706;BME280;5404;42.656;23.336;2022-07-22T01:28:28;94907.22;;;19.54;100.00
10706;BME280;5404;42.656;23.336;2022-07-22T01:30:53;94901.72;;;19.50;100.00
10706;BME280;5404;42.656;23.336;2022-07-22T01:33:20;94896.63;;;19.33;100.00
10706;BME280;5404;42.656;23.336;2022-07-22T01:35:47;94884.38;;;19.36;100.00
10706;BME280;5404;42.656;23.336;2022-07-22T01:38:14;94884.63;;;19.46;100.00
10706;BME280;5404;42.656;23.336;2022-07-22T01:40:41;94886.19;;;19.47;100.00
10706;BME280;5404;42.656;23.336;2022-07-22T01:43:07;94893.28;;;19.52;100.00
10706;BME280;5404;42.656;23.336;2022-07-22T01:45:33;94873.56;;;19.36;100.00
10706;BME280;5404;42.656;23.336;2022-07-22T01:47:59;94879.91;;;19.43;100.00
10706;BME280;5404;42.656;23.336;2022-07-22T01:50:24;94888.56;;;19.49;100.00
10706;BME280;5404;42.656;23.336;2022-07-22T01:52:50;94893.50;;;19.47;100.00
10706;BME280;5404;42.656;23.336;2022-07-22T01:55:16;94891.25;;;19.33;100.00
10706;BME280;5404;42.656;23.336;2022-07-22T01:57:42;94894.47;;;19.39;100.00
10706;BME280;5404;42.656;23.336;2022-07-22T02:00:09;94893.84;;;19.30;100.00
10706;BME280;5404;42.656;23.336;2022-07-22T02:02:35;94900.16;;;19.22;100.00
10706;BME280;5404;42.656;23.336;2022-07-22T02:05:01;94894.94;;;19.13;100.00
10706;BME280;5404;42.656;23.336;2022-07-22T02:07:27;94903.63;;;19.07;100.00
10706;BME280;5404;42.656;23.336;2022-07-22T02:09:52;94902.03;;;19.06;100.00
10706;BME280;5404;42.656;23.336;2022-07-22T02:12:18;94904.19;;;19.12;100.00
10706;BME280;5404;42.656;23.336;2022-07-22T02:14:44;94909.66;;;19.16;100.00
10706;BME280;5404;42.656;23.336;2022-07-22T02:17:10;94909.22;;;19.14;100.00
10706;BME280;5404;42.656;23.336;2022-07-22T02:19:35;94911.72;;;19.07;100.00
10706;BME280;5404;42.656;23.336;2022-07-22T02:22:01;94909.19;;;18.98;100.00
10706;BME280;5404;42.656;23.336;2022-07-22T02:24:26;94917.72;;;19.00;100.00
10706;BME280;5404;42.656;23.336;2022-07-22T02:26:52;94912.66;;;18.99;100.00
10706;BME280;5404;42.656;23.336;2022-07-22T02:29:19;94921.44;;;18.96;100.00
10706;BME280;5404;42.656;23.336;2022-07-22T02:31:45;94918.06;;;18.99;100.00
10706;BME280;5404;42.656;23.336;2022-07-22T02:34:11;94920.47;;;18.88;100.00
10706;BME280;5404;42.656;23.336;2022-07-22T02:36:36;94920.78;;;18.87;100.00
10706;BME280;5404;42.656;23.336;2022-07-22T02:39:03;94930.94;;;18.90;100.00
10706;BME280;5404;42.656;23.336;2022-07-22T02:41:28;94909.53;;;18.69;100.00
10706;BME280;5404;42.656;23.336;2022-07-22T02:43:54;94919.28;;;18.74;100.00
10706;BME280;5404;42.656;23.336;2022-07-22T02:46:23;94921.97;;;18.74;100.00
10706;BME280;5404;42.656;23.336;2022-07-22T02:48:49;94915.31;;;18.83;100.00
10706;BME280;5404;42.656;23.336;2022-07-22T02:51:15;94920.63;;;18.80;100.00
10706;BME280;5404;42.656;23.336;2022-07-22T02:53:40;94912.69;;;18.87;100.00
10706;BME280;5404;42.656;23.336;2022-07-22T02:56:06;94902.63;;;18.99;100.00
10706;BME280;5404;42.656;23.336;2022-07-22T02:58:31;94905.28;;;19.11;100.00
10706;BME280;5404;42.656;23.336;2022-07-22T03:00:57;94897.34;;;19.03;100.00
10706;BME280;5404;42.656;23.336;2022-07-22T03:03:22;94898.03;;;19.00;100.00
10706;BME280;5404;42.656;23.336;2022-07-22T03:05:49;94910.34;;;19.13;100.00
10706;BME280;5404;42.656;23.336;2022-07-22T03:08:15;94897.88;;;19.08;100.00
10706;BME280;5404;42.656;23.336;2022-07-22T03:10:40;94906.38;;;18.95;100.00
10706;BME280;5404;42.656;23.336;2022-07-22T03:13:06;94919.00;;;18.91;100.00
10706;BME280;5404;42.656;23.336;2022-07-22T03:15:31;94919.00;;;18.91;100.00
10706;BME280;5404;42.656;23.336;2022-07-22T03:17:56;94912.03;;;18.90;100.00
10706;BME280;5404;42.656;23.336;2022-07-22T03:20:22;94913.94;;;18.89;100.00
10706;BME280;5404;42.656;23.336;2022-07-22T03:22:47;94918.53;;;18.89;100.00
10706;BME280;5404;42.656;23.336;2022-07-22T03:25:13;94915.84;;;18.89;100.00
10706;BME280;5404;42.656;23.336;2022-07-22T03:27:38;94919.00;;;18.91;100.00
10706;BME280;5404;42.656;23.336;2022-07-22T03:30:05;94916.28;;;18.91;100.00
10706;BME280;5404;42.656;23.336;2022-07-22T03:32:30;94929.53;;;18.96;100.00
10706;BME280;5404;42.656;23.336;2022-07-22T03:34:56;94918.06;;;18.99;100.00
10706;BME280;5404;42.656;23.336;2022-07-22T03:37:21;94916.59;;;19.01;100.00
10706;BME280;5404;42.656;23.336;2022-07-22T03:39:47;94922.97;;;19.09;100.00
10706;BME280;5404;42.656;23.336;2022-07-22T03:42:13;94925.09;;;19.15;100.00
10706;BME280;5404;42.656;23.336;2022-07-22T03:44:38;94924.03;;;19.20;100.00
10706;BME280;5404;42.656;23.336;2022-07-22T03:47:03;94937.63;;;19.35;100.00
10706;BME280;5404;42.656;23.336;2022-07-22T03:49:30;94929.16;;;19.37;100.00
10706;BME280;5404;42.656;23.336;2022-07-22T03:51:56;94928.66;;;19.47;100.00
10706;BME280;5404;42.656;23.336;2022-07-22T03:54:21;94928.34;;;19.64;100.00
10706;BME280;5404;42.656;23.336;2022-07-22T03:56:46;94934.97;;;19.66;100.00
10706;BME280;5404;42.656;23.336;2022-07-22T03:59:12;94942.91;;;19.75;100.00
10706;BME280;5404;42.656;23.336;2022-07-22T04:01:37;94936.19;;;19.85;100.00
10706;BME280;5404;42.656;23.336;2022-07-22T04:04:03;94935.59;;;19.91;100.00
10706;BME280;5404;42.656;23.336;2022-07-22T04:06:29;94922.81;;;19.92;100.00
10706;BME280;5404;42.656;23.336;2022-07-22T04:08:54;94913.50;;;19.89;100.00
10706;BME280;5404;42.656;23.336;2022-07-22T04:11:20;94943.06;;;19.98;100.00
10706;BME280;5404;42.656;23.336;2022-07-22T04:13:46;94935.94;;;20.05;100.00
10706;BME280;5404;42.656;23.336;2022-07-22T04:16:11;94929.09;;;20.11;100.00
10706;BME280;5404;42.656;23.336;2022-07-22T04:18:37;94935.66;;;20.26;100.00
10706;BME280;5404;42.656;23.336;2022-07-22T04:21:02;94932.41;;;20.36;100.00
10706;BME280;5404;42.656;23.336;2022-07-22T04:23:28;94916.19;;;20.36;100.00
10706;BME280;5404;42.656;23.336;2022-07-22T04:25:54;94923.81;;;20.49;100.00
10706;BME280;5404;42.656;23.336;2022-07-22T04:28:19;94926.34;;;20.58;100.00
10706;BME280;5404;42.656;23.336;2022-07-22T04:30:45;94927.59;;;20.64;100.00
10706;BME280;5404;42.656;23.336;2022-07-22T04:33:10;94930.25;;;20.79;100.00
10706;BME280;5404;42.656;23.336;2022-07-22T04:35:36;94927.56;;;20.79;100.00
10706;BME280;5404;42.656;23.336;2022-07-22T04:38:01;94915.97;;;20.79;100.00
10706;BME280;5404;42.656;23.336;2022-07-22T04:40:27;94929.84;;;20.97;100.00
10706;BME280;5404;42.656;23.336;2022-07-22T04:42:53;94927.38;;;21.07;100.00
10706;BME280;5404;42.656;23.336;2022-07-22T04:45:18;94932.59;;;21.16;100.00
10706;BME280;5404;42.656;23.336;2022-07-22T04:47:44;94931.38;;;21.32;100.00
10706;BME280;5404;42.656;23.336;2022-07-22T04:50:09;94937.75;;;21.43;100.00
10706;BME280;5404;42.656;23.336;2022-07-22T04:52:35;94939.81;;;21.50;100.00
10706;BME280;5404;42.656;23.336;2022-07-22T04:55:01;94941.53;;;21.58;100.00
10706;BME280;5404;42.656;23.336;2022-07-22T04:57:26;94942.56;;;21.72;100.00
10706;BME280;5404;42.656;23.336;2022-07-22T04:59:52;94940.19;;;21.90;100.00
10706;BME280;5404;42.656;23.336;2022-07-22T05:02:19;94941.78;;;21.91;100.00
10706;BME280;5404;42.656;23.336;2022-07-22T05:04:44;94937.22;;;21.98;100.00
10706;BME280;5404;42.656;23.336;2022-07-22T05:07:10;94938.94;;;21.84;100.00
10706;BME280;5404;42.656;23.336;2022-07-22T05:09:36;94940.91;;;21.87;100.00
10706;BME280;5404;42.656;23.336;2022-07-22T05:12:02;94937.22;;;21.98;100.00
10706;BME280;5404;42.656;23.336;2022-07-22T05:14:27;94934.09;;;21.96;100.00
10706;BME280;5404;42.656;23.336;2022-07-22T05:16:53;94935.72;;;22.01;100.00
10706;BME280;5404;42.656;23.336;2022-07-22T05:19:18;94929.09;;;21.98;100.00
10706;BME280;5404;42.656;23.336;2022-07-22T05:21:44;94921.44;;;22.04;100.00
10706;BME280;5404;42.656;23.336;2022-07-22T05:24:10;94937.69;;;22.27;100.00
10706;BME280;5404;42.656;23.336;2022-07-22T05:26:36;94935.84;;;22.34;100.00
10706;BME280;5404;42.656;23.336;2022-07-22T05:29:01;94932.09;;;22.42;100.00
10706;BME280;5404;42.656;23.336;2022-07-22T05:31:27;94950.31;;;22.42;100.00
10706;BME280;5404;42.656;23.336;2022-07-22T05:33:52;94946.59;;;22.53;100.00
10706;BME280;5404;42.656;23.336;2022-07-22T05:36:18;94944.25;;;22.52;100.00
10706;BME280;5404;42.656;23.336;2022-07-22T05:38:43;94944.44;;;22.62;100.00
10706;BME280;5404;42.656;23.336;2022-07-22T05:41:09;94956.56;;;22.68;100.00
10706;BME280;5404;42.656;23.336;2022-07-22T05:43:35;94937.28;;;22.77;100.00
10706;BME280;5404;42.656;23.336;2022-07-22T05:46:00;94927.22;;;22.81;100.00
10706;BME280;5404;42.656;23.336;2022-07-22T05:48:26;94940.53;;;22.89;100.00
10706;BME280;5404;42.656;23.336;2022-07-22T05:50:51;94942.31;;;23.04;100.00
10706;BME280;5404;42.656;23.336;2022-07-22T05:53:18;94937.44;;;23.21;100.00
10706;BME280;5404;42.656;23.336;2022-07-22T05:55:43;94943.91;;;23.39;100.00
10706;BME280;5404;42.656;23.336;2022-07-22T05:58:09;94945.53;;;23.47;100.00
10706;BME280;5404;42.656;23.336;2022-07-22T06:00:36;94934.66;;;23.47;100.00
10706;BME280;5404;42.656;23.336;2022-07-22T06:03:01;94935.47;;;23.47;100.00
10706;BME280;5404;42.656;23.336;2022-07-22T06:05:27;94935.91;;;23.56;100.00
10706;BME280;5404;42.656;23.336;2022-07-22T06:07:52;94920.53;;;23.71;100.00
10706;BME280;5404;42.656;23.336;2022-07-22T06:10:18;94932.31;;;23.82;100.00
10706;BME280;5404;42.656;23.336;2022-07-22T06:12:43;94929.25;;;23.87;100.00
10706;BME280;5404;42.656;23.336;2022-07-22T06:15:09;94938.38;;;24.05;100.00
10706;BME280;5404;42.656;23.336;2022-07-22T06:17:34;94936.16;;;24.17;100.00
10706;BME280;5404;42.656;23.336;2022-07-22T06:20:00;94929.09;;;24.09;100.00
10706;BME280;5404;42.656;23.336;2022-07-22T06:22:25;94931.44;;;24.11;100.00
10706;BME280;5404;42.656;23.336;2022-07-22T06:24:51;94936.97;;;24.22;100.00
10706;BME280;5404;42.656;23.336;2022-07-22T06:27:16;94935.53;;;24.38;100.00
10706;BME280;5404;42.656;23.336;2022-07-22T06:29:42;94921.59;;;24.47;100.00
10706;BME280;5404;42.656;23.336;2022-07-22T06:32:08;94933.31;;;24.54;100.00
10706;BME280;5404;42.656;23.336;2022-07-22T06:34:33;94930.59;;;24.54;100.00
10706;BME280;5404;42.656;23.336;2022-07-22T06:36:59;94927.16;;;24.68;100.00
10706;BME280;5404;42.656;23.336;2022-07-22T06:39:25;94935.88;;;24.87;100.00
10706;BME280;5404;42.656;23.336;2022-07-22T06:41:50;94932.06;;;25.02;100.00
10706;BME280;5404;42.656;23.336;2022-07-22T06:44:16;94933.31;;;25.19;100.00
10706;BME280;5404;42.656;23.336;2022-07-22T06:46:41;94932.97;;;25.31;100.00
10706;BME280;5404;42.656;23.336;2022-07-22T06:49:07;94911.56;;;25.37;100.00
10706;BME280;5404;42.656;23.336;2022-07-22T06:51:33;94935.81;;;25.73;100.00
10706;BME280;5404;42.656;23.336;2022-07-22T06:53:59;94929.59;;;25.87;100.00
10706;BME280;5404;42.656;23.336;2022-07-22T06:56:24;94929.63;;;26.01;100.00
10706;BME280;5404;42.656;23.336;2022-07-22T06:58:50;94929.66;;;26.11;100.00
10706;BME280;5404;42.656;23.336;2022-07-22T07:01:15;94931.59;;;26.18;100.00
10706;BME280;5404;42.656;23.336;2022-07-22T07:03:40;94938.25;;;26.31;100.00
10706;BME280;5404;42.656;23.336;2022-07-22T07:06:07;94931.59;;;26.39;100.00
10706;BME280;5404;42.656;23.336;2022-07-22T07:08:33;94922.22;;;26.43;100.00
10706;BME280;5404;42.656;23.336;2022-07-22T07:10:59;94932.38;;;26.68;100.00
10706;BME280;5404;42.656;23.336;2022-07-22T07:13:24;94926.88;;;26.85;98.63
10706;BME280;5404;42.656;23.336;2022-07-22T07:15:50;94929.59;;;26.89;98.10
10706;BME280;5404;42.656;23.336;2022-07-22T07:18:15;94938.91;;;27.09;96.64
10706;BME280;5404;42.656;23.336;2022-07-22T07:20:41;94935.41;;;27.15;95.51
10706;BME280;5404;42.656;23.336;2022-07-22T07:23:06;94927.59;;;27.10;95.13
10706;BME280;5404;42.656;23.336;2022-07-22T07:25:32;94940.47;;;27.31;93.62
10706;BME280;5404;42.656;23.336;2022-07-22T07:27:57;94938.44;;;27.38;90.85
10706;BME280;5404;42.656;23.336;2022-07-22T07:30:23;94945.09;;;27.41;93.06
10706;BME280;5404;42.656;23.336;2022-07-22T07:32:48;94948.53;;;27.55;93.20
10706;BME280;5404;42.656;23.336;2022-07-22T07:35:14;94928.94;;;27.61;89.38
10706;BME280;5404;42.656;23.336;2022-07-22T07:37:39;94932.00;;;27.73;84.55
10706;BME280;5404;42.656;23.336;2022-07-22T07:40:05;94926.56;;;27.70;86.10
10706;BME280;5404;42.656;23.336;2022-07-22T07:42:31;94937.44;;;27.84;85.55
10706;BME280;5404;42.656;23.336;2022-07-22T07:44:57;94940.56;;;27.86;83.82
10706;BME280;5404;42.656;23.336;2022-07-22T07:47:22;94922.25;;;27.72;76.72
10706;BME280;5404;42.656;23.336;2022-07-22T07:49:48;94940.56;;;27.86;80.79
10706;BME280;5404;42.656;23.336;2022-07-22T07:52:15;94945.63;;;27.91;77.91
10706;BME280;5404;42.656;23.336;2022-07-22T07:54:41;94935.03;;;28.00;79.77
10706;BME280;5404;42.656;23.336;2022-07-22T07:57:08;94940.44;;;28.10;77.67
10706;BME280;5404;42.656;23.336;2022-07-22T07:59:36;94943.00;;;28.31;78.19
10706;BME280;5404;42.656;23.336;2022-07-22T08:02:02;94939.31;;;28.52;80.47
10706;BME280;5404;42.656;23.336;2022-07-22T08:04:28;94945.44;;;28.70;76.14
10706;BME280;5404;42.656;23.336;2022-07-22T08:06:54;94940.63;;;28.81;71.25
10706;BME280;5404;42.656;23.336;2022-07-22T08:09:19;94944.03;;;28.92;69.35
10706;BME280;5404;42.656;23.336;2022-07-22T08:11:45;94944.75;;;29.00;66.04
10706;BME280;5404;42.656;23.336;2022-07-22T08:14:11;94923.72;;;28.86;66.37
10706;BME280;5404;42.656;23.336;2022-07-22T08:16:37;94941.28;;;28.92;63.99
10706;BME280;5404;42.656;23.336;2022-07-22T08:19:02;94945.06;;;29.05;63.06
10706;BME280;5404;42.656;23.336;2022-07-22T08:21:28;94946.06;;;29.25;65.75
10706;BME280;5404;42.656;23.336;2022-07-22T08:23:54;94949.16;;;29.27;64.63
10706;BME280;5404;42.656;23.336;2022-07-22T08:26:19;94941.22;;;29.36;62.99
10706;BME280;5404;42.656;23.336;2022-07-22T08:28:45;94948.44;;;29.53;59.65
10706;BME280;5404;42.656;23.336;2022-07-22T08:31:10;94943.00;;;29.50;55.66
10706;BME280;5404;42.656;23.336;2022-07-22T08:33:36;94933.00;;;29.33;56.00
10706;BME280;5404;42.656;23.336;2022-07-22T08:36:02;94948.78;;;29.59;54.97
10706;BME280;5404;42.656;23.336;2022-07-22T08:38:28;94937.63;;;29.73;55.63
10706;BME280;5404;42.656;23.336;2022-07-22T08:40:55;94938.41;;;29.73;55.04
10706;BME280;5404;42.656;23.336;2022-07-22T08:43:21;94952.72;;;29.88;55.55
10706;BME280;5404;42.656;23.336;2022-07-22T08:45:49;94945.63;;;29.91;52.95
10706;BME280;5404;42.656;23.336;2022-07-22T08:48:14;94948.38;;;29.91;52.31
10706;BME280;5404;42.656;23.336;2022-07-22T08:50:41;94948.84;;;29.86;53.21
10706;BME280;5404;42.656;23.336;2022-07-22T08:53:13;94940.59;;;30.12;52.92
10706;BME280;5404;42.656;23.336;2022-07-22T08:55:43;94943.94;;;30.27;51.96
10706;BME280;5404;42.656;23.336;2022-07-22T08:58:08;94941.63;;;30.48;50.53
10706;BME280;5404;42.656;23.336;2022-07-22T09:00:34;94947.78;;;30.56;49.96
10706;BME280;5404;42.656;23.336;2022-07-22T09:02:59;94949.56;;;30.43;49.25
10706;BME280;5404;42.656;23.336;2022-07-22T09:05:32;94955.31;;;30.52;48.66
10706;BME280;5404;42.656;23.336;2022-07-22T09:07:59;94946.22;;;30.55;47.88
10706;BME280;5404;42.656;23.336;2022-07-22T09:10:30;94950.94;;;30.77;47.47
10706;BME280;5404;42.656;23.336;2022-07-22T09:12:59;94943.53;;;30.98;46.90
10706;BME280;5404;42.656;23.336;2022-07-22T09:15:30;94961.09;;;31.27;47.24
10706;BME280;5404;42.656;23.336;2022-07-22T09:17:58;94949.88;;;31.76;44.13
10706;BME280;5404;42.656;23.336;2022-07-22T09:20:25;94948.28;;;33.81;39.86
10706;BME280;5404;42.656;23.336;2022-07-22T09:22:51;94946.50;;;36.20;34.63
10706;BME280;5404;42.656;23.336;2022-07-22T09:27:53;94953.00;;;37.42;31.55
10706;BME280;5404;42.656;23.336;2022-07-22T09:30:22;94951.47;;;38.70;28.68
10706;BME280;5404;42.656;23.336;2022-07-22T09:32:49;94932.69;;;39.50;28.43
10706;BME280;5404;42.656;23.336;2022-07-22T09:35:15;94949.00;;;41.23;26.31
10706;BME280;5404;42.656;23.336;2022-07-22T09:37:59;94952.56;;;43.14;24.29
10706;BME280;5404;42.656;23.336;2022-07-22T09:40:27;94949.63;;;43.45;22.69
10706;BME280;5404;42.656;23.336;2022-07-22T09:42:59;94949.50;;;43.76;22.73
10706;BME280;5404;42.656;23.336;2022-07-22T09:45:27;94949.03;;;45.21;20.65
10706;BME280;5404;42.656;23.336;2022-07-22T09:47:55;94944.25;;;44.33;21.32
10706;BME280;5404;42.656;23.336;2022-07-22T09:50:24;94950.59;;;45.00;20.42
10706;BME280;5404;42.656;23.336;2022-07-22T09:52:52;94939.66;;;46.76;19.70
10706;BME280;5404;42.656;23.336;2022-07-22T09:55:20;94944.56;;;46.99;19.89
10706;BME280;5404;42.656;23.336;2022-07-22T09:57:47;94945.13;;;46.33;19.65
10706;BME280;5404;42.656;23.336;2022-07-22T10:00:14;94943.00;;;44.34;21.17
10706;BME280;5404;42.656;23.336;2022-07-22T10:05:21;94940.91;;;43.96;21.70
10706;BME280;5404;42.656;23.336;2022-07-22T10:07:48;94938.88;;;43.32;21.82
10706;BME280;5404;42.656;23.336;2022-07-22T10:10:17;94933.50;;;44.04;21.54
10706;BME280;5404;42.656;23.336;2022-07-22T10:12:43;94935.94;;;45.92;19.84
10706;BME280;5404;42.656;23.336;2022-07-22T10:15:10;94928.13;;;46.09;19.12
10706;BME280;5404;42.656;23.336;2022-07-22T10:17:37;94926.88;;;44.13;20.24
10706;BME280;5404;42.656;23.336;2022-07-22T10:20:05;94915.38;;;44.77;20.26
10706;BME280;5404;42.656;23.336;2022-07-22T10:25:07;94925.34;;;46.04;19.97
10706;BME280;5404;42.656;23.336;2022-07-22T10:28:01;94919.16;;;48.35;17.63
10706;BME280;5404;42.656;23.336;2022-07-22T10:30:35;94923.56;;;50.19;16.92
10706;BME280;5404;42.656;23.336;2022-07-22T10:33:09;94919.56;;;49.29;16.92
10706;BME280;5404;42.656;23.336;2022-07-22T10:36:02;94921.00;;;46.38;18.79
10706;BME280;5404;42.656;23.336;2022-07-22T10:38:29;94913.03;;;46.07;19.54
10706;BME280;5404;42.656;23.336;2022-07-22T10:41:01;94917.44;;;46.37;18.74
10706;BME280;5404;42.656;23.336;2022-07-22T10:43:32;94917.06;;;47.24;18.42
10706;BME280;5404;42.656;23.336;2022-07-22T10:46:10;94914.63;;;45.56;19.36
10706;BME280;5404;42.656;23.336;2022-07-22T10:51:13;94900.84;;;44.34;20.67
10706;BME280;5404;42.656;23.336;2022-07-22T10:56:26;94912.22;;;43.70;20.94
10706;BME280;5404;42.656;23.336;2022-07-22T10:58:58;94906.09;;;41.51;22.40
10706;BME280;5404;42.656;23.336;2022-07-22T11:01:26;94900.09;;;41.18;22.76
10706;BME280;5404;42.656;23.336;2022-07-22T11:03:53;94899.38;;;41.63;22.78
10706;BME280;5404;42.656;23.336;2022-07-22T11:06:23;94892.75;;;41.41;22.17
10706;BME280;5404;42.656;23.336;2022-07-22T11:08:52;94908.81;;;42.91;21.70
10706;BME280;5404;42.656;23.336;2022-07-22T11:11:18;94896.63;;;40.69;23.12
10706;BME280;5404;42.656;23.336;2022-07-22T11:13:55;94894.44;;;41.33;22.74
10706;BME280;5404;42.656;23.336;2022-07-22T11:16:23;94895.50;;;41.61;22.40
10706;BME280;5404;42.656;23.336;2022-07-22T11:21:18;94892.00;;;42.48;21.58
10706;BME280;5404;42.656;23.336;2022-07-22T11:23:47;94889.59;;;42.72;21.52
10706;BME280;5404;42.656;23.336;2022-07-22T11:26:15;94889.53;;;41.99;22.23
10706;BME280;5404;42.656;23.336;2022-07-22T11:28:42;94878.94;;;39.93;24.24
10706;BME280;5404;42.656;23.336;2022-07-22T11:31:09;94882.03;;;39.28;24.76
10706;BME280;5404;42.656;23.336;2022-07-22T11:33:35;94877.41;;;37.62;26.15
10706;BME280;5404;42.656;23.336;2022-07-22T11:36:07;94876.31;;;36.78;27.38
10706;BME280;5404;42.656;23.336;2022-07-22T11:38:49;94876.59;;;36.53;27.83
10706;BME280;5404;42.656;23.336;2022-07-22T11:41:18;94872.97;;;35.64;29.28
10706;BME280;5404;42.656;23.336;2022-07-22T11:43:48;94871.09;;;35.17;29.63
10706;BME280;5404;42.656;23.336;2022-07-22T11:46:17;94875.56;;;34.81;30.55
10706;BME280;5404;42.656;23.336;2022-07-22T11:48:43;94873.41;;;34.51;31.20
10706;BME280;5404;42.656;23.336;2022-07-22T11:51:11;94876.63;;;34.49;31.89
10706;BME280;5404;42.656;23.336;2022-07-22T11:53:38;94869.09;;;34.50;31.60
10706;BME280;5404;42.656;23.336;2022-07-22T11:56:06;94871.97;;;34.34;31.91
10706;BME280;5404;42.656;23.336;2022-07-22T11:58:42;94870.16;;;34.65;32.15
10706;BME280;5404;42.656;23.336;2022-07-22T12:01:09;94843.47;;;34.71;31.66
10706;BME280;5404;42.656;23.336;2022-07-22T12:03:36;94854.09;;;34.72;31.80
10706;BME280;5404;42.656;23.336;2022-07-22T12:06:04;94861.66;;;34.93;32.02
10706;BME280;5404;42.656;23.336;2022-07-22T12:08:32;94861.81;;;35.11;30.96
10706;BME280;5404;42.656;23.336;2022-07-22T12:10:58;94855.72;;;34.95;31.10
10706;BME280;5404;42.656;23.336;2022-07-22T12:13:28;94852.41;;;35.09;31.60
10706;BME280;5404;42.656;23.336;2022-07-22T12:15:54;94846.88;;;35.09;30.95
10706;BME280;5404;42.656;23.336;2022-07-22T12:18:22;94851.94;;;35.10;30.97
10706;BME280;5404;42.656;23.336;2022-07-22T12:20:49;94850.09;;;35.07;30.96
10706;BME280;5404;42.656;23.336;2022-07-22T12:23:15;94842.50;;;34.99;30.97
10706;BME280;5404;42.656;23.336;2022-07-22T12:25:56;94841.91;;;35.04;30.98
10706;BME280;5404;42.656;23.336;2022-07-22T12:28:22;94850.88;;;35.08;31.48
10706;BME280;5404;42.656;23.336;2022-07-22T12:30:49;94852.78;;;34.64;32.18
10706;BME280;5404;42.656;23.336;2022-07-22T12:33:16;94857.03;;;34.44;32.19
10706;BME280;5404;42.656;23.336;2022-07-22T12:35:43;94844.66;;;34.23;31.46
10706;BME280;5404;42.656;23.336;2022-07-22T12:38:09;94848.19;;;34.36;31.24
10706;BME280;5404;42.656;23.336;2022-07-22T12:40:37;94844.09;;;34.53;31.53
10706;BME280;5404;42.656;23.336;2022-07-22T12:43:06;94840.81;;;35.01;30.84
10706;BME280;5404;42.656;23.336;2022-07-22T12:45:35;94837.72;;;35.21;31.16
10706;BME280;5404;42.656;23.336;2022-07-22T12:53:08;94845.25;;;34.99;31.04
10706;BME280;5404;42.656;23.336;2022-07-22T12:55:55;94835.56;;;34.48;31.85
10706;BME280;5404;42.656;23.336;2022-07-22T12:58:24;94840.44;;;34.31;30.84
10706;BME280;5404;42.656;23.336;2022-07-22T13:00:52;94836.75;;;34.59;30.49
10706;BME280;5404;42.656;23.336;2022-07-22T13:03:19;94834.97;;;34.87;29.53
10706;BME280;5404;42.656;23.336;2022-07-22T13:05:51;94832.97;;;35.00;29.43
10706;BME280;5404;42.656;23.336;2022-07-22T13:08:17;94834.13;;;35.11;29.18
10706;BME280;5404;42.656;23.336;2022-07-22T13:10:43;94844.19;;;34.84;29.29
10706;BME280;5404;42.656;23.336;2022-07-22T13:13:08;94848.22;;;34.70;28.89